Lewisville, Texas
Current Conditions -  °F | °C
As of 7:53 PM on Monday 24 Nov 2014 (Local Time) from KDFW Reporting Station
Few Clouds Few Clouds  
Wind Chill: 10°   Ceiling: Unl
Heat Index: 10°   Visibility: 10mi
Dew Point: -4°   Wind: 7mph
Humidity: 36%   Direction: 310°NW
Pressure: 30.11"   Gusts: NA
Location:  33.05°N, 96.99°W
Report Text: KDFW 250153Z 31006KT 10SM FEW250 10/M04 A3011 RMK AO2 SLP194 T01001044
Loading
Personal Weather Stations






























Interactive Weather Map New forecast layout! Learn more

10-Day Weather Forecast

Advertisements
Track Severe Weather on mobile